createdAt,value
2019-05-22T00:04:05.778Z,74.30
2019-05-22T00:10:15.400Z,81.73
2019-05-22T00:16:24.440Z,88.40
2019-05-22T00:22:33.795Z,87.33
2019-05-22T00:28:40.652Z,83.10
2019-05-22T00:34:47.167Z,81.57
2019-05-22T00:40:57.803Z,78.03
2019-05-22T00:47:05.630Z,68.40
2019-05-22T00:53:30.113Z,67.67
2019-05-22T00:59:41.020Z,68.90
2019-05-22T01:05:50.784Z,64.93
2019-05-22T01:11:56.696Z,69.53
2019-05-22T01:18:10.437Z,55.93
2019-05-22T01:24:17.114Z,55.67
2019-05-22T01:30:46.169Z,55.57
2019-05-22T01:36:56.611Z,57.50
2019-05-22T01:43:03.835Z,57.13
2019-05-22T01:49:12.379Z,49.23
2019-05-22T01:55:21.075Z,51.87
2019-05-22T02:01:30.602Z,53.83
2019-05-22T02:07:38.197Z,54.27
2019-05-22T02:13:52.068Z,49.57
2019-05-22T02:19:59.130Z,50.43
2019-05-22T02:26:08.522Z,49.10
2019-05-22T02:32:15.262Z,28.23
2019-05-22T02:38:21.431Z,18.77
2019-05-22T02:44:30.298Z,19.83
2019-05-22T02:50:37.892Z,14.50
2019-05-22T02:56:43.940Z,14.40
2019-05-22T03:02:53.818Z,13.70
2019-05-22T03:09:23.400Z,15.37
2019-05-22T03:15:29.990Z,18.17
2019-05-22T03:21:36.562Z,14.77
2019-05-22T03:27:46.013Z,13.77
2019-05-22T03:33:52.699Z,12.73
2019-05-22T03:39:58.985Z,13.30
2019-05-22T03:46:21.049Z,14.10
2019-05-22T03:52:33.036Z,15.37
2019-05-22T03:58:38.870Z,14.23
2019-05-22T04:04:45.256Z,15.63
2019-05-22T04:11:05.250Z,15.23
2019-05-22T04:17:13.453Z,15.57
2019-05-22T04:23:20.271Z,12.93
2019-05-22T04:29:26.514Z,13.37
2019-05-22T04:35:35.099Z,14.27
2019-05-22T04:41:41.698Z,13.07
2019-05-22T04:47:58.587Z,13.03
2019-05-22T04:54:04.503Z,14.80
2019-05-22T05:00:11.903Z,12.30
2019-05-22T05:06:20.062Z,13.20
2019-05-22T05:12:27.024Z,13.53
2019-05-22T05:18:33.509Z,15.93
2019-05-22T05:24:39.706Z,18.40
2019-05-22T05:30:46.591Z,19.87
2019-05-22T05:36:54.996Z,17.27
2019-05-22T05:43:01.872Z,15.93
2019-05-22T05:49:09.735Z,15.37
2019-05-22T05:55:16.000Z,14.67
2019-05-22T06:01:28.699Z,15.87
2019-05-22T06:07:34.997Z,16.77
2019-05-22T06:13:41.666Z,17.10
2019-05-22T06:19:51.137Z,15.13
2019-05-22T06:25:58.731Z,18.03
2019-05-22T06:33:18.155Z,18.20
2019-05-22T06:39:24.362Z,14.80
2019-05-22T06:45:30.329Z,16.33
2019-05-22T06:51:36.374Z,17.10
2019-05-22T06:57:42.580Z,16.23
2019-05-22T07:03:48.670Z,17.87
2019-05-22T07:09:57.333Z,17.50
2019-05-22T07:16:04.780Z,16.17
2019-05-22T07:22:10.917Z,18.00
2019-05-22T07:28:19.469Z,19.10
2019-05-22T07:34:26.365Z,17.77
2019-05-22T07:40:33.777Z,16.17
2019-05-22T07:46:41.286Z,15.90
2019-05-22T07:52:48.163Z,13.20
2019-05-22T07:58:58.891Z,13.10
2019-05-22T08:05:06.303Z,12.00
2019-05-22T08:11:13.567Z,10.90
2019-05-22T08:17:21.677Z,10.20
2019-05-22T08:23:29.682Z,9.93
2019-05-22T08:29:35.909Z,9.70
2019-05-22T08:35:42.535Z,10.90
2019-05-22T08:41:49.454Z,9.53
2019-05-22T08:47:55.370Z,9.40
2019-05-22T08:54:05.802Z,10.47
2019-05-22T09:00:12.600Z,11.77
2019-05-22T09:06:18.624Z,11.57
2019-05-22T09:12:25.748Z,14.57
2019-05-22T09:18:32.357Z,12.13
2019-05-22T09:24:39.126Z,10.20
2019-05-22T09:30:45.246Z,11.23
2019-05-22T09:36:51.367Z,12.07
2019-05-22T09:42:57.377Z,13.63
2019-05-22T09:49:04.144Z,11.37
2019-05-22T09:55:11.086Z,12.10
2019-05-22T10:01:17.678Z,12.83
2019-05-22T10:07:23.627Z,11.90
2019-05-22T10:13:29.574Z,11.43
2019-05-22T10:19:37.245Z,11.20
2019-05-22T10:25:43.115Z,10.53
2019-05-22T10:31:49.119Z,10.43
2019-05-22T10:37:55.928Z,11.93
2019-05-22T10:44:02.492Z,10.87
2019-05-22T10:50:08.748Z,8.43
2019-05-22T10:56:14.740Z,9.60
2019-05-22T11:02:21.298Z,10.03
2019-05-22T11:08:31.819Z,10.03
2019-05-22T11:14:35.898Z,8.97
2019-05-22T11:20:42.015Z,8.80
2019-05-22T11:26:48.063Z,10.07
2019-05-22T11:32:55.765Z,8.03
2019-05-22T11:39:02.001Z,8.57
2019-05-22T11:45:09.225Z,8.77
2019-05-22T11:51:15.780Z,8.53
2019-05-22T11:57:22.614Z,9.03
2019-05-22T12:03:30.953Z,8.33
2019-05-22T12:09:37.233Z,8.33
2019-05-22T12:15:43.531Z,7.87
2019-05-22T12:21:51.196Z,9.00
2019-05-22T12:27:57.400Z,9.73
2019-05-22T12:34:03.937Z,8.90
2019-05-22T12:40:15.832Z,9.30
2019-05-22T12:46:22.167Z,9.87
2019-05-22T12:52:28.376Z,8.90
2019-05-22T12:58:35.010Z,8.47
2019-05-22T13:04:41.167Z,9.63
2019-05-22T13:10:48.537Z,10.87
2019-05-22T13:16:54.555Z,9.10
2019-05-22T13:23:02.123Z,7.90
2019-05-22T13:29:09.601Z,8.40
2019-05-22T13:35:17.797Z,7.47
2019-05-22T13:41:23.924Z,6.73
2019-05-22T13:47:29.885Z,7.40
2019-05-22T13:53:36.656Z,7.70
2019-05-22T13:59:42.724Z,9.67
2019-05-22T14:05:50.135Z,8.50
2019-05-22T14:11:56.986Z,9.23
2019-05-22T14:18:03.426Z,9.30
2019-05-22T14:24:12.109Z,7.20
2019-05-22T14:30:19.889Z,8.43
2019-05-22T14:36:26.387Z,7.53
2019-05-22T14:42:32.439Z,9.17
2019-05-22T14:48:40.479Z,7.65
2019-05-22T14:54:46.554Z,6.13
2019-05-22T15:00:58.553Z,6.40
2019-05-22T15:07:06.156Z,7.10
2019-05-22T15:13:12.507Z,7.10
2019-05-22T15:19:19.116Z,7.05
2019-05-22T15:25:28.635Z,6.67
2019-05-22T15:31:34.527Z,7.67
2019-05-22T15:37:40.808Z,6.57
2019-05-22T15:43:52.474Z,7.47
2019-05-22T15:49:56.977Z,8.50
2019-05-22T15:56:07.410Z,8.90
2019-05-22T16:02:15.420Z,8.27
2019-05-22T16:08:21.910Z,8.70
2019-05-22T16:14:31.524Z,8.37
2019-05-22T16:20:39.879Z,8.70
2019-05-22T16:26:47.176Z,8.70
2019-05-22T16:32:54.646Z,8.80
2019-05-22T16:39:02.393Z,16.27
2019-05-22T16:45:09.415Z,8.27
2019-05-22T16:51:17.791Z,8.60
2019-05-22T16:57:25.775Z,8.60
2019-05-22T17:03:32.345Z,8.67
2019-05-22T17:09:40.829Z,8.47
2019-05-22T17:15:47.400Z,7.93
2019-05-22T17:21:53.915Z,8.47
2019-05-22T17:27:59.867Z,9.33
2019-05-22T17:34:07.974Z,12.10
2019-05-22T17:40:16.217Z,9.53
2019-05-22T17:46:23.251Z,9.83
2019-05-22T17:52:30.154Z,8.37
2019-05-22T17:58:36.187Z,9.00
2019-05-22T18:04:42.112Z,9.83
2019-05-22T18:10:51.186Z,10.87
2019-05-22T18:16:57.060Z,9.47
2019-05-22T18:23:03.275Z,8.47
2019-05-22T18:29:09.703Z,9.27
2019-05-22T18:35:17.059Z,7.93
2019-05-22T18:41:22.993Z,13.87
2019-05-22T18:47:29.383Z,6.93
2019-05-22T18:53:36.041Z,6.80
2019-05-22T18:59:41.902Z,7.43
2019-05-22T19:05:48.495Z,6.23
2019-05-22T19:11:54.415Z,7.17
2019-05-22T19:18:00.330Z,8.00
2019-05-22T19:24:06.568Z,7.00
2019-05-22T19:30:15.393Z,7.10
2019-05-22T19:36:21.549Z,9.30
2019-05-22T19:42:27.802Z,7.30
2019-05-22T19:48:34.097Z,7.90
2019-05-22T19:54:40.673Z,7.73
2019-05-22T20:00:47.883Z,7.40
2019-05-22T20:06:54.259Z,7.90
2019-05-22T20:13:00.479Z,8.70
2019-05-22T20:19:06.431Z,11.07
2019-05-22T20:25:12.791Z,10.23
2019-05-22T20:31:19.387Z,9.67
2019-05-22T20:37:25.365Z,10.53
2019-05-22T20:43:33.117Z,10.03
2019-05-22T20:49:42.125Z,10.83
2019-05-22T20:55:49.685Z,10.47
2019-05-22T21:01:55.632Z,10.27
2019-05-22T21:08:10.358Z,11.43
2019-05-22T21:14:16.189Z,10.40
2019-05-22T21:20:23.854Z,11.70
2019-05-22T21:26:30.262Z,12.10
2019-05-22T21:32:37.711Z,12.30
2019-05-22T21:38:44.163Z,11.70
2019-05-22T21:44:50.698Z,13.10
2019-05-22T21:50:57.155Z,12.23
2019-05-22T21:57:04.686Z,13.73
2019-05-22T22:03:12.120Z,13.70
2019-05-22T22:09:20.158Z,14.13
2019-05-22T22:15:26.920Z,13.60
2019-05-22T22:21:33.627Z,13.70
2019-05-22T22:27:39.880Z,13.27
2019-05-22T22:33:52.617Z,14.73
2019-05-22T22:40:00.523Z,14.17
2019-05-22T22:46:12.993Z,14.27
2019-05-22T22:52:21.209Z,14.53
2019-05-22T22:58:28.536Z,15.40
2019-05-22T23:04:35.420Z,17.57
2019-05-22T23:10:43.069Z,16.80
2019-05-22T23:16:50.229Z,17.23
2019-05-22T23:22:53.659Z,17.23
2019-05-22T23:29:00.162Z,18.60
2019-05-22T23:35:07.579Z,17.93
2019-05-22T23:41:15.518Z,18.00
2019-05-22T23:47:22.199Z,18.40
2019-05-22T23:53:28.412Z,18.80
2019-05-22T23:59:36.897Z,20.23
